sensor_id;sensor_type;location;lat;lon;timestamp;P1;durP1;ratioP1;P2;durP2;ratioP2
11835;SDS011;5977;51.972;7.640;2023-04-19T00:01:39;142.73;;;46.70;;
11835;SDS011;5977;51.972;7.640;2023-04-19T00:04:09;142.47;;;46.60;;
11835;SDS011;5977;51.972;7.640;2023-04-19T00:06:37;142.33;;;46.50;;
11835;SDS011;5977;51.972;7.640;2023-04-19T00:09:07;142.20;;;46.40;;
11835;SDS011;5977;51.972;7.640;2023-04-19T00:11:35;141.87;;;46.40;;
11835;SDS011;5977;51.972;7.640;2023-04-19T00:14:03;141.73;;;46.33;;
11835;SDS011;5977;51.972;7.640;2023-04-19T00:16:30;142.43;;;46.60;;
11835;SDS011;5977;51.972;7.640;2023-04-19T00:18:58;141.93;;;46.37;;
11835;SDS011;5977;51.972;7.640;2023-04-19T00:21:28;142.43;;;46.63;;
11835;SDS011;5977;51.972;7.640;2023-04-19T00:23:56;142.30;;;46.47;;
11835;SDS011;5977;51.972;7.640;2023-04-19T00:26:24;141.90;;;46.40;;
11835;SDS011;5977;51.972;7.640;2023-04-19T00:28:52;142.10;;;46.40;;
11835;SDS011;5977;51.972;7.640;2023-04-19T00:31:20;142.07;;;46.43;;
11835;SDS011;5977;51.972;7.640;2023-04-19T00:33:47;141.80;;;46.27;;
11835;SDS011;5977;51.972;7.640;2023-04-19T00:36:16;141.97;;;46.40;;
11835;SDS011;5977;51.972;7.640;2023-04-19T00:38:46;141.80;;;46.33;;
11835;SDS011;5977;51.972;7.640;2023-04-19T00:41:14;141.60;;;46.23;;
11835;SDS011;5977;51.972;7.640;2023-04-19T00:43:42;142.27;;;46.50;;
11835;SDS011;5977;51.972;7.640;2023-04-19T00:46:10;142.17;;;46.53;;
11835;SDS011;5977;51.972;7.640;2023-04-19T00:48:39;142.17;;;46.57;;
11835;SDS011;5977;51.972;7.640;2023-04-19T00:51:07;142.40;;;46.67;;
11835;SDS011;5977;51.972;7.640;2023-04-19T00:53:35;141.87;;;46.37;;
11835;SDS011;5977;51.972;7.640;2023-04-19T00:56:05;141.73;;;46.30;;
11835;SDS011;5977;51.972;7.640;2023-04-19T00:58:35;142.00;;;46.40;;
11835;SDS011;5977;51.972;7.640;2023-04-19T01:01:04;142.40;;;46.63;;
11835;SDS011;5977;51.972;7.640;2023-04-19T01:03:32;142.20;;;46.57;;
11835;SDS011;5977;51.972;7.640;2023-04-19T01:06:01;141.87;;;46.40;;
11835;SDS011;5977;51.972;7.640;2023-04-19T01:08:29;142.27;;;46.40;;
11835;SDS011;5977;51.972;7.640;2023-04-19T01:10:57;141.87;;;46.50;;
11835;SDS011;5977;51.972;7.640;2023-04-19T01:13:26;141.73;;;46.33;;
11835;SDS011;5977;51.972;7.640;2023-04-19T01:15:54;142.10;;;46.50;;
11835;SDS011;5977;51.972;7.640;2023-04-19T01:18:23;142.40;;;46.53;;
11835;SDS011;5977;51.972;7.640;2023-04-19T01:20:54;142.17;;;46.47;;
11835;SDS011;5977;51.972;7.640;2023-04-19T01:23:23;141.80;;;46.40;;
11835;SDS011;5977;51.972;7.640;2023-04-19T01:25:51;141.80;;;46.30;;
11835;SDS011;5977;51.972;7.640;2023-04-19T01:28:20;142.10;;;46.50;;
11835;SDS011;5977;51.972;7.640;2023-04-19T01:30:48;141.87;;;46.47;;
11835;SDS011;5977;51.972;7.640;2023-04-19T01:33:19;142.43;;;46.57;;
11835;SDS011;5977;51.972;7.640;2023-04-19T01:35:47;141.27;;;46.23;;
11835;SDS011;5977;51.972;7.640;2023-04-19T01:38:15;142.57;;;46.60;;
11835;SDS011;5977;51.972;7.640;2023-04-19T01:40:44;141.90;;;46.40;;
11835;SDS011;5977;51.972;7.640;2023-04-19T01:43:13;142.00;;;46.47;;
11835;SDS011;5977;51.972;7.640;2023-04-19T01:45:42;141.87;;;46.37;;
11835;SDS011;5977;51.972;7.640;2023-04-19T01:48:10;142.20;;;46.57;;
11835;SDS011;5977;51.972;7.640;2023-04-19T01:50:38;141.80;;;46.50;;
11835;SDS011;5977;51.972;7.640;2023-04-19T01:53:06;141.77;;;46.37;;
11835;SDS011;5977;51.972;7.640;2023-04-19T01:55:34;141.47;;;46.13;;
11835;SDS011;5977;51.972;7.640;2023-04-19T01:58:03;142.30;;;46.53;;
11835;SDS011;5977;51.972;7.640;2023-04-19T02:00:31;141.83;;;46.50;;
11835;SDS011;5977;51.972;7.640;2023-04-19T02:03:02;141.83;;;46.43;;
11835;SDS011;5977;51.972;7.640;2023-04-19T02:05:31;141.93;;;46.60;;
11835;SDS011;5977;51.972;7.640;2023-04-19T02:07:59;141.37;;;46.23;;
11835;SDS011;5977;51.972;7.640;2023-04-19T02:10:29;141.40;;;46.23;;
11835;SDS011;5977;51.972;7.640;2023-04-19T02:12:57;141.73;;;46.40;;
11835;SDS011;5977;51.972;7.640;2023-04-19T02:15:27;141.30;;;46.27;;
11835;SDS011;5977;51.972;7.640;2023-04-19T02:17:55;141.10;;;46.10;;
11835;SDS011;5977;51.972;7.640;2023-04-19T02:20:25;141.63;;;46.27;;
11835;SDS011;5977;51.972;7.640;2023-04-19T02:22:53;141.77;;;46.37;;
11835;SDS011;5977;51.972;7.640;2023-04-19T02:25:21;141.57;;;46.23;;
11835;SDS011;5977;51.972;7.640;2023-04-19T02:27:50;141.30;;;46.30;;
11835;SDS011;5977;51.972;7.640;2023-04-19T02:30:19;141.23;;;46.40;;
11835;SDS011;5977;51.972;7.640;2023-04-19T02:32:48;141.10;;;46.07;;
11835;SDS011;5977;51.972;7.640;2023-04-19T02:35:16;141.87;;;46.53;;
11835;SDS011;5977;51.972;7.640;2023-04-19T02:37:44;141.17;;;46.27;;
11835;SDS011;5977;51.972;7.640;2023-04-19T02:40:12;141.00;;;46.10;;
11835;SDS011;5977;51.972;7.640;2023-04-19T02:42:39;141.53;;;46.37;;
11835;SDS011;5977;51.972;7.640;2023-04-19T02:45:08;141.17;;;46.17;;
11835;SDS011;5977;51.972;7.640;2023-04-19T02:47:36;141.47;;;46.30;;
11835;SDS011;5977;51.972;7.640;2023-04-19T02:50:06;141.87;;;46.60;;
11835;SDS011;5977;51.972;7.640;2023-04-19T02:52:41;141.47;;;46.23;;
11835;SDS011;5977;51.972;7.640;2023-04-19T02:55:08;141.47;;;46.27;;
11835;SDS011;5977;51.972;7.640;2023-04-19T02:57:36;141.47;;;46.20;;
11835;SDS011;5977;51.972;7.640;2023-04-19T03:00:07;141.17;;;46.27;;
11835;SDS011;5977;51.972;7.640;2023-04-19T03:02:38;141.60;;;46.30;;
11835;SDS011;5977;51.972;7.640;2023-04-19T03:05:10;141.03;;;46.17;;
11835;SDS011;5977;51.972;7.640;2023-04-19T03:07:37;141.83;;;46.40;;
11835;SDS011;5977;51.972;7.640;2023-04-19T03:10:09;141.63;;;46.40;;
11835;SDS011;5977;51.972;7.640;2023-04-19T03:12:37;140.97;;;46.30;;
11835;SDS011;5977;51.972;7.640;2023-04-19T03:15:06;140.70;;;46.07;;
11835;SDS011;5977;51.972;7.640;2023-04-19T03:17:35;141.43;;;46.33;;
11835;SDS011;5977;51.972;7.640;2023-04-19T03:20:03;141.53;;;46.47;;
11835;SDS011;5977;51.972;7.640;2023-04-19T03:22:36;141.50;;;46.40;;
11835;SDS011;5977;51.972;7.640;2023-04-19T03:25:04;141.57;;;46.27;;
11835;SDS011;5977;51.972;7.640;2023-04-19T03:27:33;141.53;;;46.37;;
11835;SDS011;5977;51.972;7.640;2023-04-19T03:30:07;142.00;;;46.43;;
11835;SDS011;5977;51.972;7.640;2023-04-19T03:32:36;140.73;;;46.00;;
11835;SDS011;5977;51.972;7.640;2023-04-19T03:35:06;141.63;;;46.30;;
11835;SDS011;5977;51.972;7.640;2023-04-19T03:37:36;141.17;;;46.30;;
11835;SDS011;5977;51.972;7.640;2023-04-19T03:40:04;141.43;;;46.20;;
11835;SDS011;5977;51.972;7.640;2023-04-19T03:42:33;140.50;;;45.80;;
11835;SDS011;5977;51.972;7.640;2023-04-19T03:45:09;140.87;;;46.20;;
11835;SDS011;5977;51.972;7.640;2023-04-19T03:47:42;141.87;;;46.50;;
11835;SDS011;5977;51.972;7.640;2023-04-19T03:50:11;141.43;;;46.30;;
11835;SDS011;5977;51.972;7.640;2023-04-19T03:52:44;140.97;;;46.03;;
11835;SDS011;5977;51.972;7.640;2023-04-19T03:55:12;141.63;;;46.47;;
11835;SDS011;5977;51.972;7.640;2023-04-19T03:57:40;141.87;;;46.50;;
11835;SDS011;5977;51.972;7.640;2023-04-19T04:00:16;141.80;;;46.40;;
11835;SDS011;5977;51.972;7.640;2023-04-19T04:02:52;141.53;;;46.40;;
11835;SDS011;5977;51.972;7.640;2023-04-19T04:05:21;140.67;;;46.00;;
11835;SDS011;5977;51.972;7.640;2023-04-19T04:07:50;140.13;;;45.80;;
11835;SDS011;5977;51.972;7.640;2023-04-19T04:10:19;141.37;;;46.23;;
11835;SDS011;5977;51.972;7.640;2023-04-19T04:12:47;141.43;;;46.40;;
11835;SDS011;5977;51.972;7.640;2023-04-19T04:15:21;141.13;;;46.23;;
11835;SDS011;5977;51.972;7.640;2023-04-19T04:17:51;140.83;;;46.13;;
11835;SDS011;5977;51.972;7.640;2023-04-19T04:20:20;141.63;;;46.57;;
11835;SDS011;5977;51.972;7.640;2023-04-19T04:22:53;141.30;;;46.37;;
11835;SDS011;5977;51.972;7.640;2023-04-19T04:25:21;140.73;;;46.10;;
11835;SDS011;5977;51.972;7.640;2023-04-19T04:27:49;141.33;;;46.30;;
11835;SDS011;5977;51.972;7.640;2023-04-19T04:30:20;141.23;;;46.20;;
11835;SDS011;5977;51.972;7.640;2023-04-19T04:32:49;141.00;;;46.30;;
11835;SDS011;5977;51.972;7.640;2023-04-19T04:35:17;140.87;;;46.10;;
11835;SDS011;5977;51.972;7.640;2023-04-19T04:37:55;140.80;;;46.17;;
11835;SDS011;5977;51.972;7.640;2023-04-19T04:40:24;140.90;;;46.13;;
11835;SDS011;5977;51.972;7.640;2023-04-19T04:42:53;140.93;;;46.17;;
11835;SDS011;5977;51.972;7.640;2023-04-19T04:45:21;140.97;;;46.10;;
11835;SDS011;5977;51.972;7.640;2023-04-19T04:47:49;140.50;;;46.03;;
11835;SDS011;5977;51.972;7.640;2023-04-19T04:50:17;140.37;;;45.90;;
11835;SDS011;5977;51.972;7.640;2023-04-19T04:52:47;141.07;;;46.17;;
11835;SDS011;5977;51.972;7.640;2023-04-19T04:55:21;140.63;;;46.03;;
11835;SDS011;5977;51.972;7.640;2023-04-19T04:57:49;140.73;;;46.17;;
11835;SDS011;5977;51.972;7.640;2023-04-19T05:00:27;140.63;;;46.10;;
11835;SDS011;5977;51.972;7.640;2023-04-19T05:03:02;140.63;;;46.10;;
11835;SDS011;5977;51.972;7.640;2023-04-19T05:05:35;140.43;;;45.97;;
11835;SDS011;5977;51.972;7.640;2023-04-19T05:08:03;140.57;;;46.00;;
11835;SDS011;5977;51.972;7.640;2023-04-19T05:10:32;140.60;;;46.07;;
11835;SDS011;5977;51.972;7.640;2023-04-19T05:13:01;140.70;;;46.13;;
11835;SDS011;5977;51.972;7.640;2023-04-19T05:15:30;140.47;;;46.00;;
11835;SDS011;5977;51.972;7.640;2023-04-19T05:17:58;140.73;;;46.10;;
11835;SDS011;5977;51.972;7.640;2023-04-19T05:20:26;140.00;;;45.77;;
11835;SDS011;5977;51.972;7.640;2023-04-19T05:23:04;139.93;;;45.80;;
11835;SDS011;5977;51.972;7.640;2023-04-19T05:25:35;140.17;;;45.93;;
11835;SDS011;5977;51.972;7.640;2023-04-19T05:28:03;140.43;;;46.00;;
11835;SDS011;5977;51.972;7.640;2023-04-19T05:30:40;140.30;;;45.87;;
11835;SDS011;5977;51.972;7.640;2023-04-19T05:33:08;140.60;;;46.13;;
11835;SDS011;5977;51.972;7.640;2023-04-19T05:35:36;140.30;;;45.83;;
11835;SDS011;5977;51.972;7.640;2023-04-19T05:38:04;140.17;;;45.93;;
11835;SDS011;5977;51.972;7.640;2023-04-19T05:40:34;139.77;;;45.80;;
11835;SDS011;5977;51.972;7.640;2023-04-19T05:43:02;140.93;;;46.30;;
11835;SDS011;5977;51.972;7.640;2023-04-19T05:45:30;140.37;;;45.97;;
11835;SDS011;5977;51.972;7.640;2023-04-19T05:47:58;140.00;;;46.00;;
11835;SDS011;5977;51.972;7.640;2023-04-19T05:50:55;139.67;;;45.73;;
11835;SDS011;5977;51.972;7.640;2023-04-19T05:53:42;140.57;;;46.00;;
11835;SDS011;5977;51.972;7.640;2023-04-19T05:56:11;140.17;;;45.90;;
11835;SDS011;5977;51.972;7.640;2023-04-19T05:58:39;140.93;;;46.30;;
11835;SDS011;5977;51.972;7.640;2023-04-19T06:01:07;139.70;;;45.70;;
11835;SDS011;5977;51.972;7.640;2023-04-19T06:03:35;140.00;;;46.03;;
11835;SDS011;5977;51.972;7.640;2023-04-19T06:06:03;140.20;;;46.10;;
11835;SDS011;5977;51.972;7.640;2023-04-19T06:08:31;139.97;;;46.07;;
11835;SDS011;5977;51.972;7.640;2023-04-19T06:10:59;140.50;;;46.40;;
11835;SDS011;5977;51.972;7.640;2023-04-19T06:13:47;140.37;;;46.20;;
11835;SDS011;5977;51.972;7.640;2023-04-19T06:16:16;140.37;;;46.17;;
11835;SDS011;5977;51.972;7.640;2023-04-19T06:18:44;140.37;;;46.17;;
11835;SDS011;5977;51.972;7.640;2023-04-19T06:21:12;140.20;;;46.00;;
11835;SDS011;5977;51.972;7.640;2023-04-19T06:23:40;140.27;;;46.10;;
11835;SDS011;5977;51.972;7.640;2023-04-19T06:26:08;139.97;;;46.07;;
11835;SDS011;5977;51.972;7.640;2023-04-19T06:28:36;140.40;;;46.10;;
11835;SDS011;5977;51.972;7.640;2023-04-19T06:31:06;140.03;;;45.97;;
11835;SDS011;5977;51.972;7.640;2023-04-19T06:33:34;139.70;;;45.87;;
11835;SDS011;5977;51.972;7.640;2023-04-19T06:36:02;140.33;;;46.10;;
11835;SDS011;5977;51.972;7.640;2023-04-19T06:38:30;140.50;;;46.20;;
11835;SDS011;5977;51.972;7.640;2023-04-19T06:40:58;140.23;;;46.10;;
11835;SDS011;5977;51.972;7.640;2023-04-19T06:43:26;141.00;;;46.60;;
11835;SDS011;5977;51.972;7.640;2023-04-19T06:45:56;140.63;;;46.30;;
11835;SDS011;5977;51.972;7.640;2023-04-19T06:48:26;141.03;;;46.50;;
11835;SDS011;5977;51.972;7.640;2023-04-19T06:50:54;141.00;;;46.60;;
11835;SDS011;5977;51.972;7.640;2023-04-19T06:53:22;140.90;;;46.40;;
11835;SDS011;5977;51.972;7.640;2023-04-19T06:55:52;141.00;;;46.47;;
11835;SDS011;5977;51.972;7.640;2023-04-19T06:58:24;141.20;;;46.60;;
11835;SDS011;5977;51.972;7.640;2023-04-19T07:00:52;141.43;;;46.53;;
11835;SDS011;5977;51.972;7.640;2023-04-19T07:03:19;141.40;;;46.40;;
11835;SDS011;5977;51.972;7.640;2023-04-19T07:05:49;141.73;;;46.63;;
11835;SDS011;5977;51.972;7.640;2023-04-19T07:08:17;141.20;;;46.40;;
11835;SDS011;5977;51.972;7.640;2023-04-19T07:10:45;141.63;;;46.70;;
11835;SDS011;5977;51.972;7.640;2023-04-19T07:13:13;141.30;;;46.40;;
11835;SDS011;5977;51.972;7.640;2023-04-19T07:15:41;141.60;;;46.73;;
11835;SDS011;5977;51.972;7.640;2023-04-19T07:18:09;142.00;;;46.73;;
11835;SDS011;5977;51.972;7.640;2023-04-19T07:20:40;142.33;;;46.90;;
11835;SDS011;5977;51.972;7.640;2023-04-19T07:23:11;142.07;;;46.80;;
11835;SDS011;5977;51.972;7.640;2023-04-19T07:25:39;142.30;;;47.00;;
11835;SDS011;5977;51.972;7.640;2023-04-19T07:28:07;143.53;;;47.17;;
11835;SDS011;5977;51.972;7.640;2023-04-19T07:30:35;141.37;;;46.30;;
11835;SDS011;5977;51.972;7.640;2023-04-19T07:33:02;141.73;;;46.60;;
11835;SDS011;5977;51.972;7.640;2023-04-19T07:35:31;142.00;;;46.67;;
11835;SDS011;5977;51.972;7.640;2023-04-19T07:37:58;142.73;;;47.00;;
11835;SDS011;5977;51.972;7.640;2023-04-19T07:40:28;143.27;;;47.10;;
11835;SDS011;5977;51.972;7.640;2023-04-19T07:42:56;143.17;;;46.97;;
11835;SDS011;5977;51.972;7.640;2023-04-19T07:45:24;143.67;;;47.20;;
11835;SDS011;5977;51.972;7.640;2023-04-19T07:47:51;144.47;;;47.50;;
11835;SDS011;5977;51.972;7.640;2023-04-19T07:50:19;144.50;;;47.57;;
11835;SDS011;5977;51.972;7.640;2023-04-19T07:52:48;143.57;;;47.30;;
11835;SDS011;5977;51.972;7.640;2023-04-19T07:55:16;144.33;;;47.57;;
11835;SDS011;5977;51.972;7.640;2023-04-19T07:57:45;143.83;;;47.30;;
11835;SDS011;5977;51.972;7.640;2023-04-19T08:00:14;143.10;;;47.13;;
11835;SDS011;5977;51.972;7.640;2023-04-19T08:02:42;143.10;;;47.00;;
11835;SDS011;5977;51.972;7.640;2023-04-19T08:05:11;142.93;;;47.07;;
11835;SDS011;5977;51.972;7.640;2023-04-19T08:07:42;143.47;;;47.03;;
11835;SDS011;5977;51.972;7.640;2023-04-19T08:10:10;143.63;;;47.30;;
11835;SDS011;5977;51.972;7.640;2023-04-19T08:12:39;144.13;;;47.30;;
11835;SDS011;5977;51.972;7.640;2023-04-19T08:15:28;143.67;;;47.20;;
11835;SDS011;5977;51.972;7.640;2023-04-19T08:17:58;143.87;;;47.27;;
11835;SDS011;5977;51.972;7.640;2023-04-19T08:20:27;143.90;;;47.23;;
11835;SDS011;5977;51.972;7.640;2023-04-19T08:22:54;144.93;;;47.67;;
11835;SDS011;5977;51.972;7.640;2023-04-19T08:25:25;144.10;;;47.33;;
11835;SDS011;5977;51.972;7.640;2023-04-19T08:27:54;144.23;;;47.30;;
11835;SDS011;5977;51.972;7.640;2023-04-19T08:30:22;144.70;;;47.57;;
11835;SDS011;5977;51.972;7.640;2023-04-19T08:32:51;144.27;;;47.27;;
11835;SDS011;5977;51.972;7.640;2023-04-19T08:35:22;144.20;;;47.30;;
11835;SDS011;5977;51.972;7.640;2023-04-19T08:37:50;143.43;;;47.07;;
11835;SDS011;5977;51.972;7.640;2023-04-19T08:40:18;143.33;;;47.03;;
11835;SDS011;5977;51.972;7.640;2023-04-19T08:42:46;143.13;;;46.97;;
11835;SDS011;5977;51.972;7.640;2023-04-19T08:45:15;143.07;;;46.83;;
11835;SDS011;5977;51.972;7.640;2023-04-19T08:47:55;143.80;;;47.33;;
11835;SDS011;5977;51.972;7.640;2023-04-19T08:50:27;143.63;;;47.10;;
11835;SDS011;5977;51.972;7.640;2023-04-19T08:53:10;143.87;;;47.27;;
11835;SDS011;5977;51.972;7.640;2023-04-19T08:55:50;144.13;;;47.23;;
11835;SDS011;5977;51.972;7.640;2023-04-19T08:58:43;143.63;;;47.10;;
11835;SDS011;5977;51.972;7.640;2023-04-19T09:01:29;143.93;;;47.23;;
11835;SDS011;5977;51.972;7.640;2023-04-19T09:04:03;143.07;;;46.80;;
11835;SDS011;5977;51.972;7.640;2023-04-19T09:06:53;144.07;;;47.23;;
11835;SDS011;5977;51.972;7.640;2023-04-19T09:09:21;144.23;;;47.40;;
11835;SDS011;5977;51.972;7.640;2023-04-19T09:11:53;144.53;;;47.50;;
11835;SDS011;5977;51.972;7.640;2023-04-19T09:14:21;143.63;;;47.10;;
11835;SDS011;5977;51.972;7.640;2023-04-19T09:16:49;143.63;;;47.03;;
11835;SDS011;5977;51.972;7.640;2023-04-19T09:19:19;143.93;;;47.17;;
11835;SDS011;5977;51.972;7.640;2023-04-19T09:21:50;144.27;;;47.27;;
11835;SDS011;5977;51.972;7.640;2023-04-19T09:27:27;143.60;;;46.97;;
11835;SDS011;5977;51.972;7.640;2023-04-19T09:29:57;143.63;;;47.23;;
11835;SDS011;5977;51.972;7.640;2023-04-19T09:32:25;143.17;;;46.97;;
11835;SDS011;5977;51.972;7.640;2023-04-19T09:34:56;143.77;;;47.03;;
11835;SDS011;5977;51.972;7.640;2023-04-19T09:37:25;144.60;;;47.50;;
11835;SDS011;5977;51.972;7.640;2023-04-19T09:40:22;144.07;;;47.17;;
11835;SDS011;5977;51.972;7.640;2023-04-19T09:42:50;144.27;;;47.23;;
11835;SDS011;5977;51.972;7.640;2023-04-19T09:45:21;144.63;;;47.57;;
11835;SDS011;5977;51.972;7.640;2023-04-19T09:48:01;144.67;;;47.40;;
11835;SDS011;5977;51.972;7.640;2023-04-19T09:50:32;144.87;;;47.50;;
11835;SDS011;5977;51.972;7.640;2023-04-19T09:53:19;144.23;;;47.30;;
11835;SDS011;5977;51.972;7.640;2023-04-19T09:55:48;144.27;;;47.23;;
11835;SDS011;5977;51.972;7.640;2023-04-19T09:58:26;144.63;;;47.37;;
11835;SDS011;5977;51.972;7.640;2023-04-19T10:01:08;143.83;;;47.10;;
11835;SDS011;5977;51.972;7.640;2023-04-19T10:03:42;143.97;;;47.13;;
11835;SDS011;5977;51.972;7.640;2023-04-19T10:06:14;144.63;;;47.47;;
11835;SDS011;5977;51.972;7.640;2023-04-19T10:09:03;145.13;;;47.67;;
11835;SDS011;5977;51.972;7.640;2023-04-19T10:11:32;144.30;;;47.27;;
11835;SDS011;5977;51.972;7.640;2023-04-19T10:14:04;144.50;;;47.40;;
11835;SDS011;5977;51.972;7.640;2023-04-19T10:16:35;144.67;;;47.40;;
11835;SDS011;5977;51.972;7.640;2023-04-19T10:19:05;144.33;;;47.20;;
11835;SDS011;5977;51.972;7.640;2023-04-19T10:21:37;144.87;;;47.53;;
11835;SDS011;5977;51.972;7.640;2023-04-19T10:24:07;143.97;;;47.10;;
11835;SDS011;5977;51.972;7.640;2023-04-19T10:32:25;144.50;;;47.40;;
11835;SDS011;5977;51.972;7.640;2023-04-19T10:34:54;144.30;;;47.17;;
11835;SDS011;5977;51.972;7.640;2023-04-19T10:37:29;144.77;;;47.47;;
11835;SDS011;5977;51.972;7.640;2023-04-19T10:39:58;145.30;;;47.67;;
11835;SDS011;5977;51.972;7.640;2023-04-19T10:45:30;144.67;;;47.30;;
11835;SDS011;5977;51.972;7.640;2023-04-19T10:47:59;145.30;;;47.67;;
11835;SDS011;5977;51.972;7.640;2023-04-19T10:50:29;145.13;;;47.37;;
11835;SDS011;5977;51.972;7.640;2023-04-19T10:56:11;144.23;;;47.10;;
11835;SDS011;5977;51.972;7.640;2023-04-19T11:01:49;145.17;;;47.43;;
11835;SDS011;5977;51.972;7.640;2023-04-19T11:04:20;144.60;;;47.30;;
11835;SDS011;5977;51.972;7.640;2023-04-19T11:06:59;145.20;;;47.60;;
11835;SDS011;5977;51.972;7.640;2023-04-19T11:09:31;145.03;;;47.43;;
11835;SDS011;5977;51.972;7.640;2023-04-19T11:12:01;145.00;;;47.40;;
11835;SDS011;5977;51.972;7.640;2023-04-19T11:14:34;145.00;;;47.47;;
11835;SDS011;5977;51.972;7.640;2023-04-19T11:17:12;144.87;;;47.43;;
11835;SDS011;5977;51.972;7.640;2023-04-19T11:19:42;145.37;;;47.53;;
11835;SDS011;5977;51.972;7.640;2023-04-19T11:22:10;145.30;;;47.50;;
11835;SDS011;5977;51.972;7.640;2023-04-19T11:24:45;144.63;;;47.37;;
11835;SDS011;5977;51.972;7.640;2023-04-19T11:27:13;144.63;;;47.27;;
11835;SDS011;5977;51.972;7.640;2023-04-19T11:29:41;145.30;;;47.60;;
11835;SDS011;5977;51.972;7.640;2023-04-19T11:32:09;144.77;;;47.40;;
11835;SDS011;5977;51.972;7.640;2023-04-19T11:34:37;145.30;;;47.60;;
11835;SDS011;5977;51.972;7.640;2023-04-19T11:37:07;144.60;;;47.30;;
11835;SDS011;5977;51.972;7.640;2023-04-19T11:39:44;144.17;;;47.13;;
11835;SDS011;5977;51.972;7.640;2023-04-19T11:42:16;144.77;;;47.40;;
11835;SDS011;5977;51.972;7.640;2023-04-19T11:44:49;144.70;;;47.40;;
11835;SDS011;5977;51.972;7.640;2023-04-19T11:47:18;144.53;;;47.27;;
11835;SDS011;5977;51.972;7.640;2023-04-19T11:49:46;144.33;;;47.23;;
11835;SDS011;5977;51.972;7.640;2023-04-19T11:52:19;144.93;;;47.33;;
11835;SDS011;5977;51.972;7.640;2023-04-19T11:54:50;144.43;;;47.20;;
11835;SDS011;5977;51.972;7.640;2023-04-19T11:57:27;144.43;;;47.13;;
11835;SDS011;5977;51.972;7.640;2023-04-19T12:00:03;144.23;;;47.20;;
11835;SDS011;5977;51.972;7.640;2023-04-19T12:02:39;144.47;;;47.17;;
11835;SDS011;5977;51.972;7.640;2023-04-19T12:05:10;144.13;;;47.10;;
11835;SDS011;5977;51.972;7.640;2023-04-19T12:10:32;145.17;;;47.57;;
11835;SDS011;5977;51.972;7.640;2023-04-19T12:13:01;144.03;;;46.97;;
11835;SDS011;5977;51.972;7.640;2023-04-19T12:15:43;145.13;;;47.47;;
11835;SDS011;5977;51.972;7.640;2023-04-19T12:18:12;144.93;;;47.50;;
11835;SDS011;5977;51.972;7.640;2023-04-19T12:20:42;145.40;;;47.60;;
11835;SDS011;5977;51.972;7.640;2023-04-19T12:23:11;144.57;;;47.30;;
11835;SDS011;5977;51.972;7.640;2023-04-19T12:25:42;144.30;;;47.23;;
11835;SDS011;5977;51.972;7.640;2023-04-19T12:28:11;144.77;;;47.33;;
11835;SDS011;5977;51.972;7.640;2023-04-19T12:30:40;144.63;;;47.20;;
11835;SDS011;5977;51.972;7.640;2023-04-19T12:33:08;144.77;;;47.40;;
11835;SDS011;5977;51.972;7.640;2023-04-19T12:35:38;145.20;;;47.43;;
11835;SDS011;5977;51.972;7.640;2023-04-19T12:38:06;145.50;;;47.40;;
11835;SDS011;5977;51.972;7.640;2023-04-19T12:40:35;145.17;;;47.57;;
11835;SDS011;5977;51.972;7.640;2023-04-19T12:43:05;144.70;;;47.30;;
11835;SDS011;5977;51.972;7.640;2023-04-19T12:45:33;145.17;;;47.37;;
11835;SDS011;5977;51.972;7.640;2023-04-19T12:48:01;145.43;;;47.43;;
11835;SDS011;5977;51.972;7.640;2023-04-19T12:50:29;146.00;;;47.77;;
11835;SDS011;5977;51.972;7.640;2023-04-19T12:52:57;144.97;;;47.43;;
11835;SDS011;5977;51.972;7.640;2023-04-19T12:55:25;145.73;;;47.67;;
11835;SDS011;5977;51.972;7.640;2023-04-19T12:57:53;145.20;;;47.53;;
11835;SDS011;5977;51.972;7.640;2023-04-19T13:00:22;145.33;;;47.50;;
11835;SDS011;5977;51.972;7.640;2023-04-19T13:02:50;145.20;;;47.40;;
11835;SDS011;5977;51.972;7.640;2023-04-19T13:05:18;144.93;;;47.27;;
11835;SDS011;5977;51.972;7.640;2023-04-19T13:07:46;145.77;;;47.57;;
11835;SDS011;5977;51.972;7.640;2023-04-19T13:10:14;145.90;;;47.70;;
11835;SDS011;5977;51.972;7.640;2023-04-19T13:12:42;144.60;;;47.30;;
11835;SDS011;5977;51.972;7.640;2023-04-19T13:15:10;145.57;;;47.37;;
11835;SDS011;5977;51.972;7.640;2023-04-19T13:17:39;145.20;;;47.33;;
11835;SDS011;5977;51.972;7.640;2023-04-19T13:20:08;145.53;;;47.70;;
11835;SDS011;5977;51.972;7.640;2023-04-19T13:22:36;145.67;;;47.67;;
11835;SDS011;5977;51.972;7.640;2023-04-19T13:25:04;145.20;;;47.43;;
11835;SDS011;5977;51.972;7.640;2023-04-19T13:27:32;144.73;;;47.33;;
11835;SDS011;5977;51.972;7.640;2023-04-19T13:30:00;145.30;;;47.47;;
11835;SDS011;5977;51.972;7.640;2023-04-19T13:32:28;145.27;;;47.40;;
11835;SDS011;5977;51.972;7.640;2023-04-19T13:34:58;144.93;;;47.27;;
11835;SDS011;5977;51.972;7.640;2023-04-19T13:37:25;144.70;;;47.33;;
11835;SDS011;5977;51.972;7.640;2023-04-19T13:39:53;145.93;;;47.83;;
11835;SDS011;5977;51.972;7.640;2023-04-19T13:42:40;145.27;;;47.33;;
11835;SDS011;5977;51.972;7.640;2023-04-19T13:45:08;144.23;;;46.93;;
11835;SDS011;5977;51.972;7.640;2023-04-19T13:47:36;144.33;;;47.10;;
11835;SDS011;5977;51.972;7.640;2023-04-19T13:50:06;144.50;;;47.03;;
11835;SDS011;5977;51.972;7.640;2023-04-19T13:52:34;144.67;;;47.27;;
11835;SDS011;5977;51.972;7.640;2023-04-19T13:55:02;145.73;;;47.60;;
11835;SDS011;5977;51.972;7.640;2023-04-19T13:57:31;145.63;;;47.47;;
11835;SDS011;5977;51.972;7.640;2023-04-19T13:59:58;145.43;;;47.43;;
11835;SDS011;5977;51.972;7.640;2023-04-19T14:02:26;146.23;;;47.87;;
11835;SDS011;5977;51.972;7.640;2023-04-19T14:04:55;144.97;;;47.17;;
11835;SDS011;5977;51.972;7.640;2023-04-19T14:07:25;145.37;;;47.47;;
11835;SDS011;5977;51.972;7.640;2023-04-19T14:09:53;145.60;;;47.47;;
11835;SDS011;5977;51.972;7.640;2023-04-19T14:12:21;145.60;;;47.57;;
11835;SDS011;5977;51.972;7.640;2023-04-19T14:14:48;145.13;;;47.43;;
11835;SDS011;5977;51.972;7.640;2023-04-19T14:17:16;145.53;;;47.60;;
11835;SDS011;5977;51.972;7.640;2023-04-19T14:19:44;145.17;;;47.27;;
11835;SDS011;5977;51.972;7.640;2023-04-19T14:22:12;145.53;;;47.53;;
11835;SDS011;5977;51.972;7.640;2023-04-19T14:24:41;145.90;;;47.63;;
11835;SDS011;5977;51.972;7.640;2023-04-19T14:27:10;145.10;;;47.40;;
11835;SDS011;5977;51.972;7.640;2023-04-19T14:29:38;146.03;;;47.83;;
11835;SDS011;5977;51.972;7.640;2023-04-19T14:32:06;145.60;;;47.70;;
11835;SDS011;5977;51.972;7.640;2023-04-19T14:34:51;146.23;;;47.87;;
11835;SDS011;5977;51.972;7.640;2023-04-19T14:37:20;145.90;;;47.73;;
11835;SDS011;5977;51.972;7.640;2023-04-19T14:39:50;145.43;;;47.50;;
11835;SDS011;5977;51.972;7.640;2023-04-19T14:42:18;144.93;;;47.33;;
11835;SDS011;5977;51.972;7.640;2023-04-19T14:44:49;144.73;;;47.20;;
11835;SDS011;5977;51.972;7.640;2023-04-19T14:47:17;145.23;;;47.43;;
11835;SDS011;5977;51.972;7.640;2023-04-19T14:49:45;145.43;;;47.53;;
11835;SDS011;5977;51.972;7.640;2023-04-19T14:52:13;144.90;;;47.23;;
11835;SDS011;5977;51.972;7.640;2023-04-19T14:54:41;144.90;;;47.37;;
11835;SDS011;5977;51.972;7.640;2023-04-19T14:57:11;145.37;;;47.53;;
11835;SDS011;5977;51.972;7.640;2023-04-19T14:59:39;144.93;;;47.37;;